KFLL

Fort Lauderdale / Hollywood International Airport

Fort Lauderdale, Florida, USA
KFLL 221734Z 2218/2324 23008KT P6SM SCT025 BKN050 FM221900 27010KT 6SM SHRA VCTS SCT025 BKN035CB TEMPO 2219/2222 VRB15G25KT 3SM TSRA SCT020 BKN030CB FM230200 VRB05KT P6SM VCSH SCT025 BKN050 BKN250 FM231400 24007KT P6SM VCTS SCT025CB BKN050
Issued Valid From Valid To
Jul-22 @ 17:34 UTC
(3 hours ago)
Jul-22 @ 18:00 UTC
(2 hours ago)
Jul-24 @ 00:00 UTC
(-1 days ago)
Expired Click to View Jul-22 @ 18:00 to Jul-22 @ 19:00
KFLL 221734Z 2218/2324 23008KT P6SM SCT025 BKN050
Wind Visibility Clouds
230° at 8 knots Greater than 6 miles
  • Scattered at 2,500' AGL
  • Broken at 5,000' AGL
Temporary Jul-22 @ 19:00 to Jul-22 @ 22:00
TEMPO 2219/2222 VRB15G25KT 3SM TSRA SCT020 BKN030CB
Wind Visibility Clouds Conditions
Variable at 15 knots
 Gusting to 25 knots
3 miles
  • Scattered at 2,000' AGL
  • Broken at 3,000' AGL
  • Thunderstorm
  • Rain
From Jul-22 @ 19:00 to Jul-23 @ 02:00
FM221900 27010KT 6SM SHRA VCTS SCT025 BKN035CB
Wind Visibility Clouds Conditions
270° at 10 knots 6 miles
  • Scattered at 2,500' AGL
  • Broken at 3,500' AGL
  • Rain
  • Area Thunderstorm
From Jul-23 @ 02:00 to Jul-23 @ 14:00
FM230200 VRB05KT P6SM VCSH SCT025 BKN050 BKN250
Wind Visibility Clouds
Variable at 5 knots Greater than 6 miles
  • Scattered at 2,500' AGL
  • Broken at 5,000' AGL
  • Broken at 25,000' AGL
From Jul-23 @ 14:00 to Jul-24 @ 00:00
FM231400 24007KT P6SM VCTS SCT025CB BKN050
Wind Visibility Clouds Conditions
240° at 7 knots Greater than 6 miles
  • Scattered at 2,500' AGL
  • Broken at 5,000' AGL
  • Area Thunderstorm
KFLL 221734Z 2218/2324 23008KT P6SM SCT025 BKN050 FM221900 27010KT 6SM SHRA VCTS SCT025 BKN035CB TEMPO 2219/2222 VRB15G25KT 3SM TSRA SCT020 BKN030CB FM230200 VRB05KT P6SM VCSH SCT025 BKN050 BKN250 FM231400 24007KT P6SM VCTS SCT025CB BKN050
Issued Jul-22 @ 17:34 UTC
(3 hours ago)
Valid From Jul-22 @ 18:00 UTC
(2 hours ago)
Valid To Jul-24 @ 00:00 UTC
(-1 days ago)
Jul-22 @ 18:00 - Jul-22 @ 19:00
Wind Visibility
230° at 8 knots Greater than 6 miles
Clouds
  • Scattered at 2,500' AGL
  • Broken at 5,000' AGL
Temporary Jul-22 @ 19:00 - Jul-22 @ 22:00
Wind Visibility
Variable at 15 knots
 Gusting to 25 knots
3 miles
Clouds
  • Scattered at 2,000' AGL
  • Broken at 3,000' AGL
Conditions
  • Thunderstorm
  • Rain
From Jul-22 @ 19:00 - Jul-23 @ 02:00
Wind Visibility
270° at 10 knots 6 miles
Clouds
  • Scattered at 2,500' AGL
  • Broken at 3,500' AGL
Conditions
  • Rain
  • Area Thunderstorm
From Jul-23 @ 02:00 - Jul-23 @ 14:00
Wind Visibility
Variable at 5 knots Greater than 6 miles
Clouds
  • Scattered at 2,500' AGL
  • Broken at 5,000' AGL
  • Broken at 25,000' AGL
From Jul-23 @ 14:00 - Jul-24 @ 00:00
Wind Visibility
240° at 7 knots Greater than 6 miles
Clouds
  • Scattered at 2,500' AGL
  • Broken at 5,000' AGL
Conditions
  • Area Thunderstorm